sensor_id;sensor_type;location;lat;lon;timestamp;pressure;altitude;pressure_sealevel;temperature;humidity
29383;BME280;16365;51.598;7.668;2023-02-17T00:01:23;101335.50;;;15.30;51.72
29383;BME280;16365;51.598;7.668;2023-02-17T00:03:51;101335.66;;;15.33;51.18
29383;BME280;16365;51.598;7.668;2023-02-17T00:06:22;101340.88;;;15.35;51.19
29383;BME280;16365;51.598;7.668;2023-02-17T00:08:49;101326.69;;;15.40;50.97
29383;BME280;16365;51.598;7.668;2023-02-17T00:11:17;101335.06;;;15.40;51.18
29383;BME280;16365;51.598;7.668;2023-02-17T00:13:45;101317.13;;;15.41;51.30
29383;BME280;16365;51.598;7.668;2023-02-17T00:16:18;101322.06;;;15.44;51.81
29383;BME280;16365;51.598;7.668;2023-02-17T00:18:46;101304.94;;;15.46;51.24
29383;BME280;16365;51.598;7.668;2023-02-17T00:21:15;101309.03;;;15.48;51.51
29383;BME280;16365;51.598;7.668;2023-02-17T00:23:44;101303.06;;;15.50;51.23
29383;BME280;16365;51.598;7.668;2023-02-17T00:26:11;101290.72;;;15.51;51.34
29383;BME280;16365;51.598;7.668;2023-02-17T00:28:38;101292.84;;;15.54;51.45
29383;BME280;16365;51.598;7.668;2023-02-17T00:31:16;101298.78;;;15.52;52.24
29383;BME280;16365;51.598;7.668;2023-02-17T00:33:43;101294.09;;;15.56;51.37
29383;BME280;16365;51.598;7.668;2023-02-17T00:36:12;101293.78;;;15.58;51.76
29383;BME280;16365;51.598;7.668;2023-02-17T00:38:39;101289.47;;;15.60;51.46
29383;BME280;16365;51.598;7.668;2023-02-17T00:41:05;101289.94;;;15.62;51.40
29383;BME280;16365;51.598;7.668;2023-02-17T00:43:32;101277.63;;;15.63;51.25
29383;BME280;16365;51.598;7.668;2023-02-17T00:45:58;101285.31;;;15.66;51.33
29383;BME280;16365;51.598;7.668;2023-02-17T00:48:25;101276.22;;;15.70;51.49
29383;BME280;16365;51.598;7.668;2023-02-17T00:50:51;101273.91;;;15.72;51.64
29383;BME280;16365;51.598;7.668;2023-02-17T00:53:20;101265.63;;;15.75;51.36
29383;BME280;16365;51.598;7.668;2023-02-17T00:55:46;101274.50;;;15.77;51.36
29383;BME280;16365;51.598;7.668;2023-02-17T00:58:13;101279.34;;;15.80;51.46
29383;BME280;16365;51.598;7.668;2023-02-17T01:00:39;101268.31;;;15.84;51.37
29383;BME280;16365;51.598;7.668;2023-02-17T01:03:06;101275.50;;;15.85;51.02
29383;BME280;16365;51.598;7.668;2023-02-17T01:05:32;101265.25;;;15.89;51.51
29383;BME280;16365;51.598;7.668;2023-02-17T01:07:59;101280.19;;;15.93;51.53
29383;BME280;16365;51.598;7.668;2023-02-17T01:10:25;101273.41;;;15.94;51.44
29383;BME280;16365;51.598;7.668;2023-02-17T01:12:52;101269.13;;;15.97;51.42
29383;BME280;16365;51.598;7.668;2023-02-17T01:15:19;101264.78;;;15.99;51.42
29383;BME280;16365;51.598;7.668;2023-02-17T01:17:45;101262.47;;;16.01;51.12
29383;BME280;16365;51.598;7.668;2023-02-17T01:20:12;101262.91;;;16.03;51.11
29383;BME280;16365;51.598;7.668;2023-02-17T01:22:38;101254.16;;;16.05;51.28
29383;BME280;16365;51.598;7.668;2023-02-17T01:25:05;101253.47;;;16.08;51.14
29383;BME280;16365;51.598;7.668;2023-02-17T01:27:32;101241.94;;;16.09;51.45
29383;BME280;16365;51.598;7.668;2023-02-17T01:29:59;101240.41;;;16.12;51.03
29383;BME280;16365;51.598;7.668;2023-02-17T01:32:25;101235.63;;;16.12;51.19
29383;BME280;16365;51.598;7.668;2023-02-17T01:34:53;101230.84;;;16.13;51.36
29383;BME280;16365;51.598;7.668;2023-02-17T01:37:19;101229.69;;;16.14;50.91
29383;BME280;16365;51.598;7.668;2023-02-17T01:39:45;101220.47;;;16.13;51.21
29383;BME280;16365;51.598;7.668;2023-02-17T01:42:17;101223.28;;;16.13;51.83
29383;BME280;16365;51.598;7.668;2023-02-17T01:45:22;101226.44;;;16.12;52.02
29383;BME280;16365;51.598;7.668;2023-02-17T01:48:05;101209.28;;;16.13;52.08
29383;BME280;16365;51.598;7.668;2023-02-17T01:50:40;101216.16;;;16.16;51.64
29383;BME280;16365;51.598;7.668;2023-02-17T01:53:09;101215.81;;;16.17;50.95
29383;BME280;16365;51.598;7.668;2023-02-17T01:55:38;101220.59;;;16.17;51.50
29383;BME280;16365;51.598;7.668;2023-02-17T01:58:08;101222.56;;;16.16;51.39
29383;BME280;16365;51.598;7.668;2023-02-17T02:00:38;101210.22;;;16.17;51.37
29383;BME280;16365;51.598;7.668;2023-02-17T02:03:08;101214.19;;;16.16;51.93
29383;BME280;16365;51.598;7.668;2023-02-17T02:05:37;101223.03;;;16.18;51.35
29383;BME280;16365;51.598;7.668;2023-02-17T02:08:04;101212.66;;;16.19;51.21
29383;BME280;16365;51.598;7.668;2023-02-17T02:10:30;101213.47;;;16.19;51.37
29383;BME280;16365;51.598;7.668;2023-02-17T02:12:57;101224.31;;;16.21;51.36
29383;BME280;16365;51.598;7.668;2023-02-17T02:15:27;101209.03;;;16.18;51.64
29383;BME280;16365;51.598;7.668;2023-02-17T02:23:47;101215.00;;;16.17;52.42
29383;BME280;16365;51.598;7.668;2023-02-17T02:34:36;101205.69;;;16.13;52.28
29383;BME280;16365;51.598;7.668;2023-02-17T02:37:08;101212.44;;;16.12;52.10
29383;BME280;16365;51.598;7.668;2023-02-17T02:39:41;101205.69;;;16.13;51.70
29383;BME280;16365;51.598;7.668;2023-02-17T02:42:12;101197.66;;;16.11;51.73
29383;BME280;16365;51.598;7.668;2023-02-17T02:44:39;101203.25;;;16.11;51.69
29383;BME280;16365;51.598;7.668;2023-02-17T02:49:55;101190.44;;;16.10;51.85
29383;BME280;16365;51.598;7.668;2023-02-17T02:53:00;101175.16;;;16.08;52.83
29383;BME280;16365;51.598;7.668;2023-02-17T02:58:26;101165.97;;;16.07;52.86
29383;BME280;16365;51.598;7.668;2023-02-17T03:01:03;101161.16;;;16.08;52.59
29383;BME280;16365;51.598;7.668;2023-02-17T03:03:40;101152.34;;;16.06;52.48
29383;BME280;16365;51.598;7.668;2023-02-17T03:06:37;101149.53;;;16.06;52.91
29383;BME280;16365;51.598;7.668;2023-02-17T03:09:17;101151.53;;;16.05;52.75
29383;BME280;16365;51.598;7.668;2023-02-17T03:11:45;101151.97;;;16.07;51.88
29383;BME280;16365;51.598;7.668;2023-02-17T03:14:16;101147.06;;;16.04;52.10
29383;BME280;16365;51.598;7.668;2023-02-17T03:16:45;101154.31;;;16.05;52.47
29383;BME280;16365;51.598;7.668;2023-02-17T03:19:13;101150.69;;;16.05;52.17
29383;BME280;16365;51.598;7.668;2023-02-17T03:21:56;101164.22;;;16.03;53.13
29383;BME280;16365;51.598;7.668;2023-02-17T03:24:24;101169.13;;;16.06;52.34
29383;BME280;16365;51.598;7.668;2023-02-17T03:26:50;101174.72;;;16.06;52.13
29383;BME280;16365;51.598;7.668;2023-02-17T03:29:17;101162.34;;;16.07;52.30
29383;BME280;16365;51.598;7.668;2023-02-17T03:31:43;101170.38;;;16.08;52.36
29383;BME280;16365;51.598;7.668;2023-02-17T03:34:10;101160.34;;;16.07;52.47
29383;BME280;16365;51.598;7.668;2023-02-17T03:36:36;101154.88;;;16.11;52.29
29383;BME280;16365;51.598;7.668;2023-02-17T03:39:03;101150.91;;;16.12;52.22
29383;BME280;16365;51.598;7.668;2023-02-17T03:41:29;101144.13;;;16.13;52.37
29383;BME280;16365;51.598;7.668;2023-02-17T03:43:55;101146.22;;;16.16;52.04
29383;BME280;16365;51.598;7.668;2023-02-17T03:46:22;101148.31;;;16.19;52.23
29383;BME280;16365;51.598;7.668;2023-02-17T03:48:48;101161.97;;;16.21;52.16
29383;BME280;16365;51.598;7.668;2023-02-17T03:51:18;101168.81;;;16.23;52.01
29383;BME280;16365;51.598;7.668;2023-02-17T03:53:46;101160.53;;;16.27;52.19
29383;BME280;16365;51.598;7.668;2023-02-17T03:56:15;101167.38;;;16.29;51.74
29383;BME280;16365;51.598;7.668;2023-02-17T03:58:42;101170.28;;;16.33;52.00
29383;BME280;16365;51.598;7.668;2023-02-17T04:01:10;101165.50;;;16.33;52.01
29383;BME280;16365;51.598;7.668;2023-02-17T04:03:38;101175.63;;;16.38;52.21
29383;BME280;16365;51.598;7.668;2023-02-17T04:06:05;101166.63;;;16.44;51.47
29383;BME280;16365;51.598;7.668;2023-02-17T04:08:32;101173.84;;;16.45;51.52
29383;BME280;16365;51.598;7.668;2023-02-17T04:11:00;101179.09;;;16.47;51.38
29383;BME280;16365;51.598;7.668;2023-02-17T04:13:27;101170.69;;;16.47;51.45
29383;BME280;16365;51.598;7.668;2023-02-17T04:15:54;101163.91;;;16.48;51.33
29383;BME280;16365;51.598;7.668;2023-02-17T04:18:21;101161.59;;;16.50;51.33
29383;BME280;16365;51.598;7.668;2023-02-17T04:20:49;101164.03;;;16.52;51.28
29383;BME280;16365;51.598;7.668;2023-02-17T04:23:16;101162.84;;;16.53;51.28
29383;BME280;16365;51.598;7.668;2023-02-17T04:25:43;101162.16;;;16.56;51.18
29383;BME280;16365;51.598;7.668;2023-02-17T04:28:11;101160.16;;;16.56;51.26
29383;BME280;16365;51.598;7.668;2023-02-17T04:30:38;101151.38;;;16.58;50.83
29383;BME280;16365;51.598;7.668;2023-02-17T04:33:05;101151.88;;;16.60;50.91
29383;BME280;16365;51.598;7.668;2023-02-17T04:35:31;101132.28;;;16.60;51.06
29383;BME280;16365;51.598;7.668;2023-02-17T04:37:58;101127.91;;;16.62;51.09
29383;BME280;16365;51.598;7.668;2023-02-17T04:40:24;101129.91;;;16.62;50.68
29383;BME280;16365;51.598;7.668;2023-02-17T04:42:51;101126.31;;;16.61;50.48
29383;BME280;16365;51.598;7.668;2023-02-17T04:45:17;101125.59;;;16.64;51.10
29383;BME280;16365;51.598;7.668;2023-02-17T04:47:45;101152.31;;;16.62;50.96
29383;BME280;16365;51.598;7.668;2023-02-17T04:50:11;101141.22;;;16.65;50.85
29383;BME280;16365;51.598;7.668;2023-02-17T04:52:38;101140.03;;;16.66;50.49
29383;BME280;16365;51.598;7.668;2023-02-17T04:55:05;101139.66;;;16.68;50.59
29383;BME280;16365;51.598;7.668;2023-02-17T04:57:31;101133.72;;;16.69;50.69
29383;BME280;16365;51.598;7.668;2023-02-17T04:59:58;101130.56;;;16.71;50.45
29383;BME280;16365;51.598;7.668;2023-02-17T05:02:25;101122.16;;;16.71;50.21
29383;BME280;16365;51.598;7.668;2023-02-17T05:04:56;101125.09;;;16.75;50.37
29383;BME280;16365;51.598;7.668;2023-02-17T05:07:22;101129.06;;;16.74;50.55
29383;BME280;16365;51.598;7.668;2023-02-17T05:09:51;101117.88;;;16.74;50.63
29383;BME280;16365;51.598;7.668;2023-02-17T05:12:19;101120.66;;;16.74;50.40
29383;BME280;16365;51.598;7.668;2023-02-17T05:14:45;101133.13;;;16.76;50.40
29383;BME280;16365;51.598;7.668;2023-02-17T05:17:12;101133.94;;;16.77;49.94
29383;BME280;16365;51.598;7.668;2023-02-17T05:19:38;101139.19;;;16.78;49.83
29383;BME280;16365;51.598;7.668;2023-02-17T05:22:05;101139.19;;;16.78;50.42
29383;BME280;16365;51.598;7.668;2023-02-17T05:24:31;101135.22;;;16.79;49.91
29383;BME280;16365;51.598;7.668;2023-02-17T05:26:58;101132.03;;;16.81;50.09
29383;BME280;16365;51.598;7.668;2023-02-17T05:29:24;101128.06;;;16.82;50.25
29383;BME280;16365;51.598;7.668;2023-02-17T05:31:51;101126.91;;;16.83;49.80
29383;BME280;16365;51.598;7.668;2023-02-17T05:34:17;101120.47;;;16.82;49.85
29383;BME280;16365;51.598;7.668;2023-02-17T05:36:43;101132.97;;;16.85;49.69
29383;BME280;16365;51.598;7.668;2023-02-17T05:39:10;101121.75;;;16.85;49.71
29383;BME280;16365;51.598;7.668;2023-02-17T05:41:37;101119.75;;;16.85;49.78
29383;BME280;16365;51.598;7.668;2023-02-17T05:44:04;101115.78;;;16.86;50.04
29383;BME280;16365;51.598;7.668;2023-02-17T05:46:30;101122.19;;;16.87;49.65
29383;BME280;16365;51.598;7.668;2023-02-17T05:48:57;101125.47;;;16.89;49.97
29383;BME280;16365;51.598;7.668;2023-02-17T05:51:23;101117.06;;;16.89;49.74
29383;BME280;16365;51.598;7.668;2023-02-17T05:53:50;101111.47;;;16.89;49.31
29383;BME280;16365;51.598;7.668;2023-02-17T05:56:17;101114.25;;;16.89;50.00
29383;BME280;16365;51.598;7.668;2023-02-17T05:58:43;101113.88;;;16.90;49.83
29383;BME280;16365;51.598;7.668;2023-02-17T06:01:10;101114.69;;;16.91;49.70
29383;BME280;16365;51.598;7.668;2023-02-17T06:03:38;101108.28;;;16.90;49.49
29383;BME280;16365;51.598;7.668;2023-02-17T06:06:05;101107.09;;;16.91;49.68
29383;BME280;16365;51.598;7.668;2023-02-17T06:08:33;101100.34;;;16.92;49.77
29383;BME280;16365;51.598;7.668;2023-02-17T06:10:59;101077.94;;;16.92;49.85
29383;BME280;16365;51.598;7.668;2023-02-17T06:13:26;101057.16;;;16.93;49.71
29383;BME280;16365;51.598;7.668;2023-02-17T06:15:52;101075.97;;;16.93;49.38
29383;BME280;16365;51.598;7.668;2023-02-17T06:18:19;101075.97;;;16.93;49.50
29383;BME280;16365;51.598;7.668;2023-02-17T06:20:45;101073.97;;;16.93;49.75
29383;BME280;16365;51.598;7.668;2023-02-17T06:23:12;101072.34;;;16.92;49.42
29383;BME280;16365;51.598;7.668;2023-02-17T06:25:39;101088.78;;;16.94;49.80
29383;BME280;16365;51.598;7.668;2023-02-17T06:28:05;101082.38;;;16.93;49.53
29383;BME280;16365;51.598;7.668;2023-02-17T06:30:32;101092.38;;;16.94;49.84
29383;BME280;16365;51.598;7.668;2023-02-17T06:32:58;101093.19;;;16.95;49.51
29383;BME280;16365;51.598;7.668;2023-02-17T06:35:25;101090.41;;;16.95;49.43
29383;BME280;16365;51.598;7.668;2023-02-17T06:37:51;101096.47;;;16.97;49.34
29383;BME280;16365;51.598;7.668;2023-02-17T06:40:18;101099.63;;;16.95;49.49
29383;BME280;16365;51.598;7.668;2023-02-17T06:42:45;101099.63;;;16.95;49.50
29383;BME280;16365;51.598;7.668;2023-02-17T06:45:11;101092.38;;;16.94;49.78
29383;BME280;16365;51.598;7.668;2023-02-17T06:47:37;101093.19;;;16.95;49.63
29383;BME280;16365;51.598;7.668;2023-02-17T06:50:05;101093.19;;;16.95;49.54
29383;BME280;16365;51.598;7.668;2023-02-17T06:52:32;101091.22;;;16.95;49.82
29383;BME280;16365;51.598;7.668;2023-02-17T06:54:58;101097.63;;;16.96;50.09
29383;BME280;16365;51.598;7.668;2023-02-17T06:57:25;101107.19;;;16.95;49.68
29383;BME280;16365;51.598;7.668;2023-02-17T06:59:51;101092.03;;;16.96;50.06
29383;BME280;16365;51.598;7.668;2023-02-17T07:02:18;101088.41;;;16.95;49.64
29383;BME280;16365;51.598;7.668;2023-02-17T07:04:44;101087.22;;;16.96;49.59
29383;BME280;16365;51.598;7.668;2023-02-17T07:07:11;101093.66;;;16.97;50.08
29383;BME280;16365;51.598;7.668;2023-02-17T07:09:38;101094.81;;;16.96;50.25
29383;BME280;16365;51.598;7.668;2023-02-17T07:12:05;101096.09;;;16.99;49.84
29383;BME280;16365;51.598;7.668;2023-02-17T07:14:33;101100.09;;;16.98;50.25
29383;BME280;16365;51.598;7.668;2023-02-17T07:17:00;101111.72;;;17.00;49.95
29383;BME280;16365;51.598;7.668;2023-02-17T07:19:27;101111.81;;;17.03;49.58
29383;BME280;16365;51.598;7.668;2023-02-17T07:21:53;101115.34;;;17.00;50.13
29383;BME280;16365;51.598;7.668;2023-02-17T07:24:20;101104.13;;;17.00;50.05
29383;BME280;16365;51.598;7.668;2023-02-17T07:26:46;101117.69;;;16.98;50.37
29383;BME280;16365;51.598;7.668;2023-02-17T07:29:13;101112.91;;;16.99;50.66
29383;BME280;16365;51.598;7.668;2023-02-17T07:31:39;101099.28;;;16.97;50.45
29383;BME280;16365;51.598;7.668;2023-02-17T07:34:06;101099.28;;;16.97;50.58
29383;BME280;16365;51.598;7.668;2023-02-17T07:36:32;101116.06;;;16.97;50.72
29383;BME280;16365;51.598;7.668;2023-02-17T07:38:59;101132.03;;;16.96;50.58
29383;BME280;16365;51.598;7.668;2023-02-17T07:41:25;101110.00;;;16.95;50.34
29383;BME280;16365;51.598;7.668;2023-02-17T07:43:56;101108.00;;;16.95;50.41
29383;BME280;16365;51.598;7.668;2023-02-17T07:46:23;101096.38;;;16.93;50.74
29383;BME280;16365;51.598;7.668;2023-02-17T07:48:51;101099.16;;;16.93;51.00
29383;BME280;16365;51.598;7.668;2023-02-17T07:51:20;101096.00;;;16.95;50.62
29383;BME280;16365;51.598;7.668;2023-02-17T07:53:47;101094.38;;;16.94;50.84
29383;BME280;16365;51.598;7.668;2023-02-17T07:56:16;101089.50;;;16.91;50.67
29383;BME280;16365;51.598;7.668;2023-02-17T07:58:43;101097.91;;;16.91;50.83
29383;BME280;16365;51.598;7.668;2023-02-17T08:01:13;101093.84;;;16.88;50.89
29383;BME280;16365;51.598;7.668;2023-02-17T08:03:40;101082.66;;;16.88;50.93
29383;BME280;16365;51.598;7.668;2023-02-17T08:06:12;101082.19;;;16.86;51.55
29383;BME280;16365;51.598;7.668;2023-02-17T08:08:39;101080.19;;;16.87;51.17
29383;BME280;16365;51.598;7.668;2023-02-17T08:11:24;101085.88;;;16.90;50.92
29383;BME280;16365;51.598;7.668;2023-02-17T08:14:12;101087.50;;;16.91;51.08
29383;BME280;16365;51.598;7.668;2023-02-17T08:16:38;101089.16;;;16.92;51.19
29383;BME280;16365;51.598;7.668;2023-02-17T08:19:05;101078.75;;;16.93;50.97
29383;BME280;16365;51.598;7.668;2023-02-17T08:21:33;101087.59;;;16.95;51.12
29383;BME280;16365;51.598;7.668;2023-02-17T08:23:59;101079.19;;;16.95;51.34
29383;BME280;16365;51.598;7.668;2023-02-17T08:26:26;101073.22;;;16.96;51.57
29383;BME280;16365;51.598;7.668;2023-02-17T08:28:52;101068.91;;;16.99;51.47
29383;BME280;16365;51.598;7.668;2023-02-17T08:31:23;101074.50;;;16.99;51.58
29383;BME280;16365;51.598;7.668;2023-02-17T08:33:52;101073.78;;;17.02;51.12
29383;BME280;16365;51.598;7.668;2023-02-17T08:36:19;101075.84;;;17.05;51.26
29383;BME280;16365;51.598;7.668;2023-02-17T08:38:47;101069.91;;;17.07;51.14
29383;BME280;16365;51.598;7.668;2023-02-17T08:41:22;101056.69;;;17.07;51.69
29383;BME280;16365;51.598;7.668;2023-02-17T08:43:50;101055.59;;;17.12;51.26
29383;BME280;16365;51.598;7.668;2023-02-17T08:46:18;101056.03;;;17.14;51.54
29383;BME280;16365;51.598;7.668;2023-02-17T08:48:47;101049.25;;;17.15;51.35
29383;BME280;16365;51.598;7.668;2023-02-17T08:51:16;101057.31;;;17.16;51.17
29383;BME280;16365;51.598;7.668;2023-02-17T08:53:43;101059.38;;;17.19;51.40
29383;BME280;16365;51.598;7.668;2023-02-17T08:56:10;101060.66;;;17.22;50.99
29383;BME280;16365;51.598;7.668;2023-02-17T08:58:37;101063.06;;;17.24;51.01
29383;BME280;16365;51.598;7.668;2023-02-17T09:01:03;101064.34;;;17.26;51.13
29383;BME280;16365;51.598;7.668;2023-02-17T09:03:33;101070.38;;;17.28;50.95
29383;BME280;16365;51.598;7.668;2023-02-17T09:06:00;101067.69;;;17.32;50.74
29383;BME280;16365;51.598;7.668;2023-02-17T09:08:26;101074.53;;;17.34;51.09
29383;BME280;16365;51.598;7.668;2023-02-17T09:10:54;101083.03;;;17.38;51.13
29383;BME280;16365;51.598;7.668;2023-02-17T09:13:21;101082.31;;;17.41;51.00
29383;BME280;16365;51.598;7.668;2023-02-17T09:15:47;101100.38;;;17.43;50.73
29383;BME280;16365;51.598;7.668;2023-02-17T09:18:14;101085.97;;;17.45;50.82
29383;BME280;16365;51.598;7.668;2023-02-17T09:20:42;101075.22;;;17.47;51.07
29383;BME280;16365;51.598;7.668;2023-02-17T09:23:08;101081.72;;;17.51;50.76
29383;BME280;16365;51.598;7.668;2023-02-17T09:25:35;101080.97;;;17.54;50.83
29383;BME280;16365;51.598;7.668;2023-02-17T09:28:01;101071.84;;;17.57;50.89
29383;BME280;16365;51.598;7.668;2023-02-17T09:30:28;101071.13;;;17.60;50.62
29383;BME280;16365;51.598;7.668;2023-02-17T09:32:55;101057.97;;;17.64;50.29
29383;BME280;16365;51.598;7.668;2023-02-17T09:35:21;101071.69;;;17.69;50.42
29383;BME280;16365;51.598;7.668;2023-02-17T09:37:48;101076.22;;;17.74;50.90
29383;BME280;16365;51.598;7.668;2023-02-17T09:40:46;101093.91;;;17.75;50.27
29383;BME280;16365;51.598;7.668;2023-02-17T09:43:16;101096.03;;;17.81;50.46
29383;BME280;16365;51.598;7.668;2023-02-17T09:45:52;101109.34;;;17.84;50.24
29383;BME280;16365;51.598;7.668;2023-02-17T09:48:26;101109.38;;;17.88;50.29
29383;BME280;16365;51.598;7.668;2023-02-17T09:51:13;101105.41;;;17.89;50.13
29383;BME280;16365;51.598;7.668;2023-02-17T09:56:31;101102.03;;;17.99;50.06
29383;BME280;16365;51.598;7.668;2023-02-17T09:59:02;101096.94;;;18.05;50.21
29383;BME280;16365;51.598;7.668;2023-02-17T10:01:32;101110.66;;;18.10;49.97
29383;BME280;16365;51.598;7.668;2023-02-17T10:04:06;101107.09;;;18.13;49.73
29383;BME280;16365;51.598;7.668;2023-02-17T10:06:40;101102.38;;;18.17;49.59
29383;BME280;16365;51.598;7.668;2023-02-17T10:09:41;101109.97;;;18.16;49.40
29383;BME280;16365;51.598;7.668;2023-02-17T10:12:16;101117.81;;;18.27;49.00
29383;BME280;16365;51.598;7.668;2023-02-17T10:14:59;101118.69;;;18.31;49.80
29383;BME280;16365;51.598;7.668;2023-02-17T10:17:33;101129.91;;;18.31;49.36
29383;BME280;16365;51.598;7.668;2023-02-17T10:20:04;101118.03;;;18.37;49.30
29383;BME280;16365;51.598;7.668;2023-02-17T10:22:33;101116.09;;;18.41;49.42
29383;BME280;16365;51.598;7.668;2023-02-17T10:25:01;101113.75;;;18.43;49.29
29383;BME280;16365;51.598;7.668;2023-02-17T10:27:40;101102.94;;;18.45;49.13
29383;BME280;16365;51.598;7.668;2023-02-17T10:30:28;101103.81;;;18.49;49.21
29383;BME280;16365;51.598;7.668;2023-02-17T10:38:16;101097.19;;;18.61;48.58
29383;BME280;16365;51.598;7.668;2023-02-17T10:40:49;101084.84;;;18.66;48.40
29383;BME280;16365;51.598;7.668;2023-02-17T10:43:24;101084.94;;;18.69;48.70
29383;BME280;16365;51.598;7.668;2023-02-17T10:45:52;101091.88;;;18.75;48.76
29383;BME280;16365;51.598;7.668;2023-02-17T10:48:34;101074.66;;;18.77;48.08
29383;BME280;16365;51.598;7.668;2023-02-17T10:51:02;101067.16;;;18.85;48.81
29383;BME280;16365;51.598;7.668;2023-02-17T10:53:32;101064.41;;;18.88;48.34
29383;BME280;16365;51.598;7.668;2023-02-17T10:56:09;101053.66;;;18.94;48.29
29383;BME280;16365;51.598;7.668;2023-02-17T10:58:46;101044.09;;;18.98;48.20
29383;BME280;16365;51.598;7.668;2023-02-17T11:01:16;101051.47;;;19.07;48.29
29383;BME280;16365;51.598;7.668;2023-02-17T11:03:42;101053.13;;;19.11;48.12
29383;BME280;16365;51.598;7.668;2023-02-17T11:06:17;101051.94;;;19.12;47.62
29383;BME280;16365;51.598;7.668;2023-02-17T11:08:49;101046.81;;;19.18;47.47
29383;BME280;16365;51.598;7.668;2023-02-17T11:11:24;101034.03;;;19.24;48.11
29383;BME280;16365;51.598;7.668;2023-02-17T11:14:08;101037.63;;;19.21;47.23
29383;BME280;16365;51.598;7.668;2023-02-17T11:16:58;101035.28;;;19.26;47.32
29383;BME280;16365;51.598;7.668;2023-02-17T11:19:28;101043.41;;;19.32;47.57
29383;BME280;16365;51.598;7.668;2023-02-17T11:21:57;101037.38;;;19.33;47.29
29383;BME280;16365;51.598;7.668;2023-02-17T11:24:25;101041.00;;;19.34;47.38
29383;BME280;16365;51.598;7.668;2023-02-17T11:27:08;101034.56;;;19.33;47.25
29383;BME280;16365;51.598;7.668;2023-02-17T11:29:35;101045.13;;;19.40;48.09
29383;BME280;16365;51.598;7.668;2023-02-17T11:32:04;101055.25;;;19.44;47.56
29383;BME280;16365;51.598;7.668;2023-02-17T11:34:36;101052.09;;;19.49;47.36
29383;BME280;16365;51.598;7.668;2023-02-17T11:39:45;101043.81;;;19.60;46.95
29383;BME280;16365;51.598;7.668;2023-02-17T11:44:48;101039.94;;;19.72;46.98
29383;BME280;16365;51.598;7.668;2023-02-17T11:47:31;101035.13;;;19.72;46.36
29383;BME280;16365;51.598;7.668;2023-02-17T11:50:16;101043.25;;;19.77;46.34
29383;BME280;16365;51.598;7.668;2023-02-17T11:56:22;101037.28;;;19.83;45.98
29383;BME280;16365;51.598;7.668;2023-02-17T12:04:29;101029.66;;;19.83;45.19
29383;BME280;16365;51.598;7.668;2023-02-17T12:07:05;101029.31;;;19.88;45.78
29383;BME280;16365;51.598;7.668;2023-02-17T12:15:33;101012.16;;;20.00;45.36
29383;BME280;16365;51.598;7.668;2023-02-17T12:18:23;101012.25;;;20.08;44.93
29383;BME280;16365;51.598;7.668;2023-02-17T12:26:20;101002.75;;;20.23;45.22
29383;BME280;16365;51.598;7.668;2023-02-17T12:29:22;101008.78;;;20.21;44.88
29383;BME280;16365;51.598;7.668;2023-02-17T12:34:52;101006.75;;;20.22;44.20
29383;BME280;16365;51.598;7.668;2023-02-17T12:37:48;101011.16;;;20.19;44.03
29383;BME280;16365;51.598;7.668;2023-02-17T12:40:35;101003.50;;;20.16;44.29
29383;BME280;16365;51.598;7.668;2023-02-17T12:43:41;100991.78;;;20.14;44.38
29383;BME280;16365;51.598;7.668;2023-02-17T12:46:26;100996.97;;;20.09;43.84
29383;BME280;16365;51.598;7.668;2023-02-17T12:49:05;101011.00;;;20.05;44.29
29383;BME280;16365;51.598;7.668;2023-02-17T12:51:48;101016.16;;;19.99;44.50
29383;BME280;16365;51.598;7.668;2023-02-17T12:54:35;101035.47;;;19.97;44.63
29383;BME280;16365;51.598;7.668;2023-02-17T13:00:24;101038.56;;;19.89;44.46
29383;BME280;16365;51.598;7.668;2023-02-17T13:02:56;101039.75;;;19.88;44.87
29383;BME280;16365;51.598;7.668;2023-02-17T13:05:27;101040.53;;;19.85;45.01
29383;BME280;16365;51.598;7.668;2023-02-17T13:07:59;101043.28;;;19.81;44.96
29383;BME280;16365;51.598;7.668;2023-02-17T13:10:33;101050.50;;;19.79;45.11
29383;BME280;16365;51.598;7.668;2023-02-17T13:13:11;101047.25;;;19.76;45.22
29383;BME280;16365;51.598;7.668;2023-02-17T13:15:42;101035.56;;;19.74;45.06
29383;BME280;16365;51.598;7.668;2023-02-17T13:23:33;101042.28;;;19.66;45.32
29383;BME280;16365;51.598;7.668;2023-02-17T13:26:24;101040.69;;;19.65;45.53
29383;BME280;16365;51.598;7.668;2023-02-17T13:28:52;101048.72;;;19.67;45.52
29383;BME280;16365;51.598;7.668;2023-02-17T13:31:23;101057.56;;;19.65;45.88
29383;BME280;16365;51.598;7.668;2023-02-17T13:33:51;101052.75;;;19.66;45.79
29383;BME280;16365;51.598;7.668;2023-02-17T13:39:02;101061.94;;;19.63;45.86
29383;BME280;16365;51.598;7.668;2023-02-17T13:41:43;101049.88;;;19.62;45.93
29383;BME280;16365;51.598;7.668;2023-02-17T13:44:42;101068.34;;;19.60;45.88
29383;BME280;16365;51.598;7.668;2023-02-17T13:47:18;101067.56;;;19.63;45.85
29383;BME280;16365;51.598;7.668;2023-02-17T13:49:53;101075.19;;;19.62;45.82
29383;BME280;16365;51.598;7.668;2023-02-17T13:52:26;101068.41;;;19.63;45.96
29383;BME280;16365;51.598;7.668;2023-02-17T13:55:17;101071.56;;;19.62;46.09
29383;BME280;16365;51.598;7.668;2023-02-17T13:57:44;101080.88;;;19.66;45.89
29383;BME280;16365;51.598;7.668;2023-02-17T14:00:21;101082.47;;;19.63;46.01
29383;BME280;16365;51.598;7.668;2023-02-17T14:02:56;101099.34;;;19.63;45.95
29383;BME280;16365;51.598;7.668;2023-02-17T14:05:27;101098.50;;;19.63;45.78
29383;BME280;16365;51.598;7.668;2023-02-17T14:08:05;101110.94;;;19.62;46.12
29383;BME280;16365;51.598;7.668;2023-02-17T14:10:33;101115.75;;;19.61;46.02
29383;BME280;16365;51.598;7.668;2023-02-17T14:12:59;101124.22;;;19.61;46.17
29383;BME280;16365;51.598;7.668;2023-02-17T14:15:27;101126.56;;;19.59;46.29